sensor_id;sensor_type;location;lat;lon;timestamp;P1;durP1;ratioP1;P2;durP2;ratioP2
20146;SDS011;10234;50.856;15.716;2022-10-31T00:02:06;20.50;;;12.50;;
20146;SDS011;10234;50.856;15.716;2022-10-31T00:04:32;21.55;;;12.82;;
20146;SDS011;10234;50.856;15.716;2022-10-31T00:07:01;21.45;;;12.85;;
20146;SDS011;10234;50.856;15.716;2022-10-31T00:09:27;18.40;;;11.68;;
20146;SDS011;10234;50.856;15.716;2022-10-31T00:11:54;20.17;;;11.88;;
20146;SDS011;10234;50.856;15.716;2022-10-31T00:14:21;22.27;;;12.00;;
20146;SDS011;10234;50.856;15.716;2022-10-31T00:16:48;16.90;;;10.98;;
20146;SDS011;10234;50.856;15.716;2022-10-31T00:19:15;15.70;;;10.95;;
20146;SDS011;10234;50.856;15.716;2022-10-31T00:21:43;18.67;;;11.50;;
20146;SDS011;10234;50.856;15.716;2022-10-31T00:24:11;18.17;;;10.68;;
20146;SDS011;10234;50.856;15.716;2022-10-31T00:26:38;19.65;;;10.98;;
20146;SDS011;10234;50.856;15.716;2022-10-31T00:29:05;17.52;;;10.43;;
20146;SDS011;10234;50.856;15.716;2022-10-31T00:31:32;18.50;;;9.55;;
20146;SDS011;10234;50.856;15.716;2022-10-31T00:33:59;19.77;;;10.18;;
20146;SDS011;10234;50.856;15.716;2022-10-31T00:36:27;20.23;;;10.23;;
20146;SDS011;10234;50.856;15.716;2022-10-31T00:38:55;17.60;;;8.45;;
20146;SDS011;10234;50.856;15.716;2022-10-31T00:41:23;14.40;;;7.07;;
20146;SDS011;10234;50.856;15.716;2022-10-31T00:43:50;12.50;;;7.20;;
20146;SDS011;10234;50.856;15.716;2022-10-31T00:46:17;13.65;;;7.90;;
20146;SDS011;10234;50.856;15.716;2022-10-31T00:48:44;17.45;;;8.25;;
20146;SDS011;10234;50.856;15.716;2022-10-31T00:51:11;15.73;;;8.40;;
20146;SDS011;10234;50.856;15.716;2022-10-31T00:53:39;15.50;;;6.90;;
20146;SDS011;10234;50.856;15.716;2022-10-31T00:56:06;15.60;;;8.75;;
20146;SDS011;10234;50.856;15.716;2022-10-31T00:58:34;15.30;;;6.97;;
20146;SDS011;10234;50.856;15.716;2022-10-31T01:01:01;11.50;;;7.57;;
20146;SDS011;10234;50.856;15.716;2022-10-31T01:03:29;12.00;;;7.18;;
20146;SDS011;10234;50.856;15.716;2022-10-31T01:05:58;13.15;;;7.20;;
20146;SDS011;10234;50.856;15.716;2022-10-31T01:08:26;19.30;;;7.93;;
20146;SDS011;10234;50.856;15.716;2022-10-31T01:10:57;13.00;;;6.43;;
20146;SDS011;10234;50.856;15.716;2022-10-31T01:13:29;16.17;;;8.23;;
20146;SDS011;10234;50.856;15.716;2022-10-31T01:15:57;14.25;;;7.65;;
20146;SDS011;10234;50.856;15.716;2022-10-31T01:18:25;12.52;;;7.18;;
20146;SDS011;10234;50.856;15.716;2022-10-31T01:20:59;10.20;;;7.55;;
20146;SDS011;10234;50.856;15.716;2022-10-31T01:23:27;12.80;;;7.85;;
20146;SDS011;10234;50.856;15.716;2022-10-31T01:26:01;12.40;;;6.93;;
20146;SDS011;10234;50.856;15.716;2022-10-31T01:28:32;12.30;;;7.18;;
20146;SDS011;10234;50.856;15.716;2022-10-31T01:31:01;11.20;;;6.93;;
20146;SDS011;10234;50.856;15.716;2022-10-31T01:33:30;14.93;;;7.00;;
20146;SDS011;10234;50.856;15.716;2022-10-31T01:35:57;18.00;;;8.35;;
20146;SDS011;10234;50.856;15.716;2022-10-31T01:38:24;15.18;;;7.38;;
20146;SDS011;10234;50.856;15.716;2022-10-31T01:40:51;10.48;;;6.70;;
20146;SDS011;10234;50.856;15.716;2022-10-31T01:43:18;12.30;;;6.85;;
20146;SDS011;10234;50.856;15.716;2022-10-31T01:45:46;12.45;;;6.10;;
20146;SDS011;10234;50.856;15.716;2022-10-31T01:48:20;11.82;;;6.43;;
20146;SDS011;10234;50.856;15.716;2022-10-31T01:50:51;14.52;;;6.22;;
20146;SDS011;10234;50.856;15.716;2022-10-31T01:53:18;14.50;;;6.72;;
20146;SDS011;10234;50.856;15.716;2022-10-31T01:55:45;16.13;;;6.78;;
20146;SDS011;10234;50.856;15.716;2022-10-31T01:58:13;10.05;;;5.95;;
20146;SDS011;10234;50.856;15.716;2022-10-31T02:00:45;11.65;;;6.22;;
20146;SDS011;10234;50.856;15.716;2022-10-31T02:03:14;12.15;;;5.60;;
20146;SDS011;10234;50.856;15.716;2022-10-31T02:05:43;12.77;;;6.22;;
20146;SDS011;10234;50.856;15.716;2022-10-31T02:08:11;12.43;;;6.28;;
20146;SDS011;10234;50.856;15.716;2022-10-31T02:10:42;11.32;;;6.72;;
20146;SDS011;10234;50.856;15.716;2022-10-31T02:13:09;12.75;;;7.10;;
20146;SDS011;10234;50.856;15.716;2022-10-31T02:15:40;15.00;;;6.78;;
20146;SDS011;10234;50.856;15.716;2022-10-31T02:18:10;11.32;;;6.93;;
20146;SDS011;10234;50.856;15.716;2022-10-31T02:20:39;15.15;;;7.10;;
20146;SDS011;10234;50.856;15.716;2022-10-31T02:23:20;15.05;;;7.63;;
20146;SDS011;10234;50.856;15.716;2022-10-31T02:26:17;14.32;;;6.75;;
20146;SDS011;10234;50.856;15.716;2022-10-31T02:29:16;11.63;;;6.68;;
20146;SDS011;10234;50.856;15.716;2022-10-31T02:32:06;12.35;;;7.15;;
20146;SDS011;10234;50.856;15.716;2022-10-31T02:34:41;12.77;;;6.40;;
20146;SDS011;10234;50.856;15.716;2022-10-31T02:37:16;13.98;;;6.97;;
20146;SDS011;10234;50.856;15.716;2022-10-31T02:39:52;12.15;;;6.43;;
20146;SDS011;10234;50.856;15.716;2022-10-31T02:42:22;12.95;;;7.18;;
20146;SDS011;10234;50.856;15.716;2022-10-31T02:44:58;11.32;;;7.13;;
20146;SDS011;10234;50.856;15.716;2022-10-31T02:47:33;12.60;;;6.53;;
20146;SDS011;10234;50.856;15.716;2022-10-31T02:50:03;14.25;;;7.38;;
20146;SDS011;10234;50.856;15.716;2022-10-31T02:52:34;15.05;;;6.93;;
20146;SDS011;10234;50.856;15.716;2022-10-31T02:55:09;11.30;;;6.35;;
20146;SDS011;10234;50.856;15.716;2022-10-31T02:57:36;13.02;;;6.82;;
20146;SDS011;10234;50.856;15.716;2022-10-31T03:00:07;10.85;;;6.20;;
20146;SDS011;10234;50.856;15.716;2022-10-31T03:02:42;15.38;;;6.63;;
20146;SDS011;10234;50.856;15.716;2022-10-31T03:08:14;10.25;;;6.13;;
20146;SDS011;10234;50.856;15.716;2022-10-31T03:10:47;9.77;;;6.13;;
20146;SDS011;10234;50.856;15.716;2022-10-31T03:13:21;9.18;;;6.32;;
20146;SDS011;10234;50.856;15.716;2022-10-31T03:15:59;12.15;;;6.80;;
20146;SDS011;10234;50.856;15.716;2022-10-31T03:18:36;10.95;;;6.50;;
20146;SDS011;10234;50.856;15.716;2022-10-31T03:21:05;10.77;;;6.57;;
20146;SDS011;10234;50.856;15.716;2022-10-31T03:23:37;9.23;;;6.47;;
20146;SDS011;10234;50.856;15.716;2022-10-31T03:26:06;10.43;;;5.90;;
20146;SDS011;10234;50.856;15.716;2022-10-31T03:28:36;14.70;;;6.97;;
20146;SDS011;10234;50.856;15.716;2022-10-31T03:31:06;10.52;;;6.50;;
20146;SDS011;10234;50.856;15.716;2022-10-31T03:33:36;11.18;;;6.78;;
20146;SDS011;10234;50.856;15.716;2022-10-31T03:36:05;10.68;;;6.63;;
20146;SDS011;10234;50.856;15.716;2022-10-31T03:38:36;10.07;;;6.72;;
20146;SDS011;10234;50.856;15.716;2022-10-31T03:41:05;11.60;;;6.50;;
20146;SDS011;10234;50.856;15.716;2022-10-31T03:43:38;7.97;;;5.78;;
20146;SDS011;10234;50.856;15.716;2022-10-31T03:46:08;8.80;;;6.15;;
20146;SDS011;10234;50.856;15.716;2022-10-31T03:48:37;9.85;;;5.82;;
20146;SDS011;10234;50.856;15.716;2022-10-31T03:51:05;12.23;;;6.32;;
20146;SDS011;10234;50.856;15.716;2022-10-31T03:53:40;11.13;;;5.63;;
20146;SDS011;10234;50.856;15.716;2022-10-31T03:56:12;11.18;;;6.40;;
20146;SDS011;10234;50.856;15.716;2022-10-31T03:58:46;18.83;;;6.45;;
20146;SDS011;10234;50.856;15.716;2022-10-31T04:01:21;8.77;;;6.25;;
20146;SDS011;10234;50.856;15.716;2022-10-31T04:03:52;13.77;;;6.50;;
20146;SDS011;10234;50.856;15.716;2022-10-31T04:06:19;17.65;;;8.45;;
20146;SDS011;10234;50.856;15.716;2022-10-31T04:08:48;13.68;;;7.05;;
20146;SDS011;10234;50.856;15.716;2022-10-31T04:11:19;17.08;;;8.80;;
20146;SDS011;10234;50.856;15.716;2022-10-31T04:13:50;19.38;;;8.35;;
20146;SDS011;10234;50.856;15.716;2022-10-31T04:16:19;18.88;;;9.50;;
20146;SDS011;10234;50.856;15.716;2022-10-31T04:18:47;20.65;;;8.25;;
20146;SDS011;10234;50.856;15.716;2022-10-31T04:21:16;12.82;;;8.07;;
20146;SDS011;10234;50.856;15.716;2022-10-31T04:23:43;15.93;;;7.10;;
20146;SDS011;10234;50.856;15.716;2022-10-31T04:26:10;15.35;;;8.13;;
20146;SDS011;10234;50.856;15.716;2022-10-31T04:28:38;15.80;;;7.80;;
20146;SDS011;10234;50.856;15.716;2022-10-31T04:31:05;13.32;;;8.00;;
20146;SDS011;10234;50.856;15.716;2022-10-31T04:33:32;11.50;;;7.32;;
20146;SDS011;10234;50.856;15.716;2022-10-31T04:35:59;14.35;;;7.43;;
20146;SDS011;10234;50.856;15.716;2022-10-31T04:38:28;11.77;;;6.75;;
20146;SDS011;10234;50.856;15.716;2022-10-31T04:40:55;13.88;;;7.03;;
20146;SDS011;10234;50.856;15.716;2022-10-31T04:43:21;14.65;;;7.28;;
20146;SDS011;10234;50.856;15.716;2022-10-31T04:45:49;13.30;;;7.55;;
20146;SDS011;10234;50.856;15.716;2022-10-31T04:48:16;16.13;;;8.18;;
20146;SDS011;10234;50.856;15.716;2022-10-31T04:50:43;12.55;;;7.90;;
20146;SDS011;10234;50.856;15.716;2022-10-31T04:53:10;15.02;;;7.20;;
20146;SDS011;10234;50.856;15.716;2022-10-31T04:55:38;13.23;;;7.28;;
20146;SDS011;10234;50.856;15.716;2022-10-31T04:58:05;13.77;;;7.70;;
20146;SDS011;10234;50.856;15.716;2022-10-31T05:00:32;10.88;;;6.95;;
20146;SDS011;10234;50.856;15.716;2022-10-31T05:02:59;9.70;;;6.72;;
20146;SDS011;10234;50.856;15.716;2022-10-31T05:05:27;11.93;;;6.55;;
20146;SDS011;10234;50.856;15.716;2022-10-31T05:07:55;10.40;;;6.07;;
20146;SDS011;10234;50.856;15.716;2022-10-31T05:10:23;13.55;;;6.47;;
20146;SDS011;10234;50.856;15.716;2022-10-31T05:12:53;9.27;;;5.68;;
20146;SDS011;10234;50.856;15.716;2022-10-31T05:15:21;11.85;;;5.68;;
20146;SDS011;10234;50.856;15.716;2022-10-31T05:17:49;12.20;;;5.85;;
20146;SDS011;10234;50.856;15.716;2022-10-31T05:20:17;12.75;;;5.85;;
20146;SDS011;10234;50.856;15.716;2022-10-31T05:22:45;9.23;;;5.93;;
20146;SDS011;10234;50.856;15.716;2022-10-31T05:25:13;13.68;;;6.20;;
20146;SDS011;10234;50.856;15.716;2022-10-31T05:27:40;12.45;;;6.28;;
20146;SDS011;10234;50.856;15.716;2022-10-31T05:30:10;6.82;;;5.28;;
20146;SDS011;10234;50.856;15.716;2022-10-31T05:32:39;10.35;;;5.47;;
20146;SDS011;10234;50.856;15.716;2022-10-31T05:35:07;12.27;;;6.47;;
20146;SDS011;10234;50.856;15.716;2022-10-31T05:37:34;9.68;;;5.85;;
20146;SDS011;10234;50.856;15.716;2022-10-31T05:40:01;11.45;;;6.05;;
20146;SDS011;10234;50.856;15.716;2022-10-31T05:42:29;11.55;;;5.50;;
20146;SDS011;10234;50.856;15.716;2022-10-31T05:44:55;10.82;;;5.97;;
20146;SDS011;10234;50.856;15.716;2022-10-31T05:47:24;11.40;;;5.40;;
20146;SDS011;10234;50.856;15.716;2022-10-31T05:49:51;12.02;;;5.93;;
20146;SDS011;10234;50.856;15.716;2022-10-31T05:52:18;13.10;;;6.32;;
20146;SDS011;10234;50.856;15.716;2022-10-31T05:54:45;10.50;;;6.35;;
20146;SDS011;10234;50.856;15.716;2022-10-31T05:57:12;14.73;;;6.55;;
20146;SDS011;10234;50.856;15.716;2022-10-31T05:59:39;11.27;;;6.00;;
20146;SDS011;10234;50.856;15.716;2022-10-31T06:02:05;12.00;;;6.35;;
20146;SDS011;10234;50.856;15.716;2022-10-31T06:04:33;10.52;;;6.55;;
20146;SDS011;10234;50.856;15.716;2022-10-31T06:07:00;14.95;;;6.22;;
20146;SDS011;10234;50.856;15.716;2022-10-31T06:09:27;10.93;;;6.57;;
20146;SDS011;10234;50.856;15.716;2022-10-31T06:11:54;11.68;;;6.28;;
20146;SDS011;10234;50.856;15.716;2022-10-31T06:14:21;12.73;;;6.43;;
20146;SDS011;10234;50.856;15.716;2022-10-31T06:16:49;15.38;;;5.63;;
20146;SDS011;10234;50.856;15.716;2022-10-31T06:19:15;11.25;;;6.15;;
20146;SDS011;10234;50.856;15.716;2022-10-31T06:21:43;12.50;;;5.45;;
20146;SDS011;10234;50.856;15.716;2022-10-31T06:24:10;12.15;;;6.07;;
20146;SDS011;10234;50.856;15.716;2022-10-31T06:26:37;15.30;;;7.28;;
20146;SDS011;10234;50.856;15.716;2022-10-31T06:29:04;17.65;;;7.45;;
20146;SDS011;10234;50.856;15.716;2022-10-31T06:31:32;14.52;;;7.13;;
20146;SDS011;10234;50.856;15.716;2022-10-31T06:33:58;9.27;;;6.20;;
20146;SDS011;10234;50.856;15.716;2022-10-31T06:36:25;14.32;;;6.10;;
20146;SDS011;10234;50.856;15.716;2022-10-31T06:38:54;10.45;;;6.28;;
20146;SDS011;10234;50.856;15.716;2022-10-31T06:41:21;12.15;;;7.20;;
20146;SDS011;10234;50.856;15.716;2022-10-31T06:43:48;12.27;;;7.45;;
20146;SDS011;10234;50.856;15.716;2022-10-31T06:46:15;10.85;;;5.97;;
20146;SDS011;10234;50.856;15.716;2022-10-31T06:48:42;8.70;;;5.95;;
20146;SDS011;10234;50.856;15.716;2022-10-31T06:51:09;11.75;;;5.97;;
20146;SDS011;10234;50.856;15.716;2022-10-31T06:53:36;10.02;;;5.78;;
20146;SDS011;10234;50.856;15.716;2022-10-31T06:56:04;9.35;;;5.53;;
20146;SDS011;10234;50.856;15.716;2022-10-31T06:58:31;8.35;;;5.18;;
20146;SDS011;10234;50.856;15.716;2022-10-31T07:00:59;10.05;;;5.78;;
20146;SDS011;10234;50.856;15.716;2022-10-31T07:03:26;15.15;;;5.32;;
20146;SDS011;10234;50.856;15.716;2022-10-31T07:05:54;8.75;;;4.53;;
20146;SDS011;10234;50.856;15.716;2022-10-31T07:08:21;6.43;;;4.88;;
20146;SDS011;10234;50.856;15.716;2022-10-31T07:10:50;8.82;;;4.13;;
20146;SDS011;10234;50.856;15.716;2022-10-31T07:13:19;7.30;;;4.15;;
20146;SDS011;10234;50.856;15.716;2022-10-31T07:15:49;7.22;;;4.35;;
20146;SDS011;10234;50.856;15.716;2022-10-31T07:18:16;5.30;;;3.55;;
20146;SDS011;10234;50.856;15.716;2022-10-31T07:20:44;10.57;;;4.53;;
20146;SDS011;10234;50.856;15.716;2022-10-31T07:23:11;7.85;;;4.07;;
20146;SDS011;10234;50.856;15.716;2022-10-31T07:25:38;7.57;;;4.05;;
20146;SDS011;10234;50.856;15.716;2022-10-31T07:28:05;8.80;;;3.28;;
20146;SDS011;10234;50.856;15.716;2022-10-31T07:30:34;5.18;;;3.53;;
20146;SDS011;10234;50.856;15.716;2022-10-31T07:33:00;5.05;;;3.03;;
20146;SDS011;10234;50.856;15.716;2022-10-31T07:35:28;5.15;;;3.35;;
20146;SDS011;10234;50.856;15.716;2022-10-31T07:37:55;8.18;;;3.50;;
20146;SDS011;10234;50.856;15.716;2022-10-31T07:40:23;6.90;;;3.55;;
20146;SDS011;10234;50.856;15.716;2022-10-31T07:42:51;8.25;;;3.35;;
20146;SDS011;10234;50.856;15.716;2022-10-31T07:45:19;9.32;;;3.47;;
20146;SDS011;10234;50.856;15.716;2022-10-31T07:47:50;8.82;;;3.70;;
20146;SDS011;10234;50.856;15.716;2022-10-31T07:50:19;12.07;;;3.42;;
20146;SDS011;10234;50.856;15.716;2022-10-31T07:52:47;8.80;;;3.55;;
20146;SDS011;10234;50.856;15.716;2022-10-31T07:55:14;10.63;;;3.47;;
20146;SDS011;10234;50.856;15.716;2022-10-31T07:57:41;12.32;;;4.00;;
20146;SDS011;10234;50.856;15.716;2022-10-31T08:00:09;6.90;;;2.65;;
20146;SDS011;10234;50.856;15.716;2022-10-31T08:02:36;7.20;;;3.80;;
20146;SDS011;10234;50.856;15.716;2022-10-31T08:05:05;7.88;;;3.60;;
20146;SDS011;10234;50.856;15.716;2022-10-31T08:07:35;15.77;;;7.70;;
20146;SDS011;10234;50.856;15.716;2022-10-31T08:10:03;17.55;;;9.10;;
20146;SDS011;10234;50.856;15.716;2022-10-31T08:12:31;16.27;;;8.85;;
20146;SDS011;10234;50.856;15.716;2022-10-31T08:14:58;12.98;;;6.60;;
20146;SDS011;10234;50.856;15.716;2022-10-31T08:17:25;13.43;;;6.38;;
20146;SDS011;10234;50.856;15.716;2022-10-31T08:19:52;13.15;;;6.18;;
20146;SDS011;10234;50.856;15.716;2022-10-31T08:22:21;10.82;;;6.38;;
20146;SDS011;10234;50.856;15.716;2022-10-31T08:24:47;12.95;;;6.93;;
20146;SDS011;10234;50.856;15.716;2022-10-31T08:27:14;10.32;;;5.80;;
20146;SDS011;10234;50.856;15.716;2022-10-31T08:29:41;10.40;;;4.00;;
20146;SDS011;10234;50.856;15.716;2022-10-31T08:32:08;7.88;;;4.40;;
20146;SDS011;10234;50.856;15.716;2022-10-31T08:34:36;7.05;;;4.13;;
20146;SDS011;10234;50.856;15.716;2022-10-31T08:37:03;9.27;;;4.72;;
20146;SDS011;10234;50.856;15.716;2022-10-31T08:39:31;8.65;;;4.10;;
20146;SDS011;10234;50.856;15.716;2022-10-31T08:41:58;9.20;;;4.35;;
20146;SDS011;10234;50.856;15.716;2022-10-31T08:44:25;8.73;;;3.40;;
20146;SDS011;10234;50.856;15.716;2022-10-31T08:46:52;10.38;;;4.38;;
20146;SDS011;10234;50.856;15.716;2022-10-31T08:49:19;6.05;;;3.17;;
20146;SDS011;10234;50.856;15.716;2022-10-31T08:51:47;7.30;;;3.92;;
20146;SDS011;10234;50.856;15.716;2022-10-31T08:54:14;6.50;;;4.25;;
20146;SDS011;10234;50.856;15.716;2022-10-31T08:56:42;8.20;;;3.92;;
20146;SDS011;10234;50.856;15.716;2022-10-31T08:59:09;10.38;;;4.18;;
20146;SDS011;10234;50.856;15.716;2022-10-31T09:01:36;9.38;;;3.95;;
20146;SDS011;10234;50.856;15.716;2022-10-31T09:04:03;9.68;;;4.40;;
20146;SDS011;10234;50.856;15.716;2022-10-31T09:06:29;9.00;;;4.60;;
20146;SDS011;10234;50.856;15.716;2022-10-31T09:08:56;8.18;;;4.93;;
20146;SDS011;10234;50.856;15.716;2022-10-31T09:11:24;7.88;;;4.18;;
20146;SDS011;10234;50.856;15.716;2022-10-31T09:13:53;7.50;;;3.28;;
20146;SDS011;10234;50.856;15.716;2022-10-31T09:16:20;9.27;;;4.00;;
20146;SDS011;10234;50.856;15.716;2022-10-31T09:18:46;5.93;;;3.40;;
20146;SDS011;10234;50.856;15.716;2022-10-31T09:21:13;7.80;;;3.20;;
20146;SDS011;10234;50.856;15.716;2022-10-31T09:23:40;6.82;;;2.95;;
20146;SDS011;10234;50.856;15.716;2022-10-31T09:26:07;7.40;;;2.67;;
20146;SDS011;10234;50.856;15.716;2022-10-31T09:28:34;9.88;;;3.22;;
20146;SDS011;10234;50.856;15.716;2022-10-31T09:31:03;7.20;;;2.67;;
20146;SDS011;10234;50.856;15.716;2022-10-31T09:33:30;8.20;;;3.50;;
20146;SDS011;10234;50.856;15.716;2022-10-31T09:35:57;5.63;;;2.25;;
20146;SDS011;10234;50.856;15.716;2022-10-31T09:38:24;7.63;;;2.70;;
20146;SDS011;10234;50.856;15.716;2022-10-31T09:40:54;8.73;;;2.90;;
20146;SDS011;10234;50.856;15.716;2022-10-31T09:43:29;11.15;;;2.92;;
20146;SDS011;10234;50.856;15.716;2022-10-31T09:45:59;8.05;;;3.53;;
20146;SDS011;10234;50.856;15.716;2022-10-31T09:48:39;7.03;;;3.25;;
20146;SDS011;10234;50.856;15.716;2022-10-31T09:51:16;5.80;;;2.88;;
20146;SDS011;10234;50.856;15.716;2022-10-31T09:53:46;5.22;;;2.75;;
20146;SDS011;10234;50.856;15.716;2022-10-31T09:56:18;5.95;;;2.90;;
20146;SDS011;10234;50.856;15.716;2022-10-31T09:58:47;6.55;;;2.70;;
20146;SDS011;10234;50.856;15.716;2022-10-31T10:04:09;8.32;;;3.97;;
20146;SDS011;10234;50.856;15.716;2022-10-31T10:06:47;8.05;;;2.72;;
20146;SDS011;10234;50.856;15.716;2022-10-31T10:09:17;5.05;;;2.88;;
20146;SDS011;10234;50.856;15.716;2022-10-31T10:11:49;6.38;;;2.53;;
20146;SDS011;10234;50.856;15.716;2022-10-31T10:14:28;2.97;;;2.53;;
20146;SDS011;10234;50.856;15.716;2022-10-31T10:17:11;7.93;;;2.70;;
20146;SDS011;10234;50.856;15.716;2022-10-31T10:19:48;7.38;;;3.13;;
20146;SDS011;10234;50.856;15.716;2022-10-31T10:22:27;7.47;;;2.83;;
20146;SDS011;10234;50.856;15.716;2022-10-31T10:25:07;10.10;;;2.90;;
20146;SDS011;10234;50.856;15.716;2022-10-31T10:27:42;5.28;;;2.45;;
20146;SDS011;10234;50.856;15.716;2022-10-31T10:30:17;9.23;;;2.95;;
20146;SDS011;10234;50.856;15.716;2022-10-31T10:32:58;8.32;;;2.95;;
20146;SDS011;10234;50.856;15.716;2022-10-31T10:35:27;11.80;;;2.70;;
20146;SDS011;10234;50.856;15.716;2022-10-31T10:37:58;7.30;;;3.25;;
20146;SDS011;10234;50.856;15.716;2022-10-31T10:40:28;6.75;;;3.15;;
20146;SDS011;10234;50.856;15.716;2022-10-31T10:42:57;7.47;;;3.55;;
20146;SDS011;10234;50.856;15.716;2022-10-31T10:45:48;7.68;;;3.00;;
20146;SDS011;10234;50.856;15.716;2022-10-31T10:48:41;7.57;;;2.92;;
20146;SDS011;10234;50.856;15.716;2022-10-31T10:51:18;8.07;;;3.10;;
20146;SDS011;10234;50.856;15.716;2022-10-31T10:53:54;6.63;;;3.25;;
20146;SDS011;10234;50.856;15.716;2022-10-31T10:56:40;3.47;;;2.30;;
20146;SDS011;10234;50.856;15.716;2022-10-31T10:59:15;9.18;;;2.90;;
20146;SDS011;10234;50.856;15.716;2022-10-31T11:01:44;6.50;;;2.78;;
20146;SDS011;10234;50.856;15.716;2022-10-31T11:07:06;7.03;;;3.10;;
20146;SDS011;10234;50.856;15.716;2022-10-31T11:09:35;8.02;;;3.40;;
20146;SDS011;10234;50.856;15.716;2022-10-31T11:12:05;7.45;;;4.20;;
20146;SDS011;10234;50.856;15.716;2022-10-31T11:14:36;7.70;;;3.05;;
20146;SDS011;10234;50.856;15.716;2022-10-31T11:17:10;6.78;;;3.25;;
20146;SDS011;10234;50.856;15.716;2022-10-31T11:19:47;8.68;;;3.08;;
20146;SDS011;10234;50.856;15.716;2022-10-31T11:22:15;7.93;;;3.40;;
20146;SDS011;10234;50.856;15.716;2022-10-31T11:24:43;8.60;;;4.00;;
20146;SDS011;10234;50.856;15.716;2022-10-31T11:27:12;8.60;;;3.42;;
20146;SDS011;10234;50.856;15.716;2022-10-31T11:29:42;8.95;;;3.53;;
20146;SDS011;10234;50.856;15.716;2022-10-31T11:32:15;8.88;;;3.40;;
20146;SDS011;10234;50.856;15.716;2022-10-31T11:34:45;7.38;;;3.15;;
20146;SDS011;10234;50.856;15.716;2022-10-31T11:37:16;8.52;;;3.83;;
20146;SDS011;10234;50.856;15.716;2022-10-31T11:39:45;8.63;;;3.42;;
20146;SDS011;10234;50.856;15.716;2022-10-31T11:42:18;13.25;;;6.15;;
20146;SDS011;10234;50.856;15.716;2022-10-31T11:44:46;5.82;;;3.50;;
20146;SDS011;10234;50.856;15.716;2022-10-31T11:47:14;8.48;;;3.80;;
20146;SDS011;10234;50.856;15.716;2022-10-31T11:49:42;9.10;;;3.80;;
20146;SDS011;10234;50.856;15.716;2022-10-31T11:52:14;10.45;;;4.88;;
20146;SDS011;10234;50.856;15.716;2022-10-31T11:54:44;9.18;;;3.83;;
20146;SDS011;10234;50.856;15.716;2022-10-31T11:57:22;10.75;;;4.65;;
20146;SDS011;10234;50.856;15.716;2022-10-31T11:59:51;7.53;;;4.07;;
20146;SDS011;10234;50.856;15.716;2022-10-31T12:02:18;7.35;;;3.63;;
20146;SDS011;10234;50.856;15.716;2022-10-31T12:04:46;9.27;;;3.38;;
20146;SDS011;10234;50.856;15.716;2022-10-31T12:07:19;6.78;;;3.10;;
20146;SDS011;10234;50.856;15.716;2022-10-31T12:09:46;6.63;;;2.88;;
20146;SDS011;10234;50.856;15.716;2022-10-31T12:12:21;10.60;;;3.53;;
20146;SDS011;10234;50.856;15.716;2022-10-31T12:14:55;8.20;;;3.40;;
20146;SDS011;10234;50.856;15.716;2022-10-31T12:17:28;14.35;;;3.80;;
20146;SDS011;10234;50.856;15.716;2022-10-31T12:20:03;8.43;;;3.60;;
20146;SDS011;10234;50.856;15.716;2022-10-31T12:22:45;9.73;;;3.40;;
20146;SDS011;10234;50.856;15.716;2022-10-31T12:25:21;9.23;;;3.83;;
20146;SDS011;10234;50.856;15.716;2022-10-31T12:27:59;10.10;;;3.25;;
20146;SDS011;10234;50.856;15.716;2022-10-31T12:30:33;8.15;;;3.47;;
20146;SDS011;10234;50.856;15.716;2022-10-31T12:33:11;5.90;;;2.85;;
20146;SDS011;10234;50.856;15.716;2022-10-31T12:36:11;8.07;;;2.55;;
20146;SDS011;10234;50.856;15.716;2022-10-31T12:39:12;7.30;;;2.78;;
20146;SDS011;10234;50.856;15.716;2022-10-31T12:41:57;6.13;;;2.60;;
20146;SDS011;10234;50.856;15.716;2022-10-31T12:44:40;8.68;;;2.78;;
20146;SDS011;10234;50.856;15.716;2022-10-31T12:47:34;7.63;;;2.50;;
20146;SDS011;10234;50.856;15.716;2022-10-31T12:50:10;6.88;;;2.33;;
20146;SDS011;10234;50.856;15.716;2022-10-31T12:52:48;7.47;;;2.75;;
20146;SDS011;10234;50.856;15.716;2022-10-31T12:55:30;6.30;;;2.28;;
20146;SDS011;10234;50.856;15.716;2022-10-31T12:58:20;7.47;;;2.35;;
20146;SDS011;10234;50.856;15.716;2022-10-31T13:00:51;6.68;;;2.67;;
20146;SDS011;10234;50.856;15.716;2022-10-31T13:03:25;6.00;;;2.45;;
20146;SDS011;10234;50.856;15.716;2022-10-31T13:05:54;8.45;;;2.72;;
20146;SDS011;10234;50.856;15.716;2022-10-31T13:08:25;7.57;;;2.70;;
20146;SDS011;10234;50.856;15.716;2022-10-31T13:10:59;7.28;;;2.80;;
20146;SDS011;10234;50.856;15.716;2022-10-31T13:13:31;873.15;;;798.60;;
20146;SDS011;10234;50.856;15.716;2022-10-31T13:16:03;8.02;;;2.60;;
20146;SDS011;10234;50.856;15.716;2022-10-31T13:18:38;5.32;;;2.40;;
20146;SDS011;10234;50.856;15.716;2022-10-31T13:21:10;8.40;;;2.67;;
20146;SDS011;10234;50.856;15.716;2022-10-31T13:23:42;8.80;;;2.50;;
20146;SDS011;10234;50.856;15.716;2022-10-31T13:26:13;916.05;;;836.63;;
20146;SDS011;10234;50.856;15.716;2022-10-31T13:28:47;934.45;;;856.58;;
20146;SDS011;10234;50.856;15.716;2022-10-31T13:31:18;1003.15;;;918.35;;
20146;SDS011;10234;50.856;15.716;2022-10-31T13:33:47;642.60;;;587.65;;
20146;SDS011;10234;50.856;15.716;2022-10-31T13:36:18;787.58;;;720.22;;
20146;SDS011;10234;50.856;15.716;2022-10-31T13:38:48;613.80;;;561.15;;
20146;SDS011;10234;50.856;15.716;2022-10-31T13:41:27;1133.97;;;999.90;;
20146;SDS011;10234;50.856;15.716;2022-10-31T13:44:01;733.40;;;669.70;;
20146;SDS011;10234;50.856;15.716;2022-10-31T13:46:35;1102.70;;;998.67;;
20146;SDS011;10234;50.856;15.716;2022-10-31T13:49:04;695.63;;;637.97;;
20146;SDS011;10234;50.856;15.716;2022-10-31T13:51:32;13.68;;;6.45;;
20146;SDS011;10234;50.856;15.716;2022-10-31T13:54:19;9.80;;;2.88;;
20146;SDS011;10234;50.856;15.716;2022-10-31T13:56:51;7.68;;;2.42;;
20146;SDS011;10234;50.856;15.716;2022-10-31T13:59:19;8.02;;;3.08;;
20146;SDS011;10234;50.856;15.716;2022-10-31T14:01:49;10.98;;;3.10;;
20146;SDS011;10234;50.856;15.716;2022-10-31T14:04:19;7.65;;;2.75;;
20146;SDS011;10234;50.856;15.716;2022-10-31T14:06:51;9.35;;;3.25;;
20146;SDS011;10234;50.856;15.716;2022-10-31T14:09:24;5.53;;;2.42;;
20146;SDS011;10234;50.856;15.716;2022-10-31T14:11:57;5.78;;;2.20;;
20146;SDS011;10234;50.856;15.716;2022-10-31T14:14:28;8.68;;;3.15;;
20146;SDS011;10234;50.856;15.716;2022-10-31T14:16:56;8.63;;;2.60;;
20146;SDS011;10234;50.856;15.716;2022-10-31T14:19:24;8.05;;;2.75;;
20146;SDS011;10234;50.856;15.716;2022-10-31T14:21:52;8.65;;;2.30;;
20146;SDS011;10234;50.856;15.716;2022-10-31T14:27:04;9.40;;;2.55;;
20146;SDS011;10234;50.856;15.716;2022-10-31T14:30:14;11.13;;;4.47;;
20146;SDS011;10234;50.856;15.716;2022-10-31T14:32:41;10.05;;;3.60;;
20146;SDS011;10234;50.856;15.716;2022-10-31T14:35:12;7.20;;;3.47;;
20146;SDS011;10234;50.856;15.716;2022-10-31T14:37:50;7.22;;;3.08;;
20146;SDS011;10234;50.856;15.716;2022-10-31T14:40:29;6.93;;;2.40;;
20146;SDS011;10234;50.856;15.716;2022-10-31T14:43:05;8.70;;;3.05;;
20146;SDS011;10234;50.856;15.716;2022-10-31T14:45:37;9.75;;;3.33;;
20146;SDS011;10234;50.856;15.716;2022-10-31T14:48:17;7.43;;;3.13;;
20146;SDS011;10234;50.856;15.716;2022-10-31T14:50:48;5.53;;;2.95;;
20146;SDS011;10234;50.856;15.716;2022-10-31T14:53:18;9.60;;;3.47;;
20146;SDS011;10234;50.856;15.716;2022-10-31T14:55:47;11.68;;;3.13;;
20146;SDS011;10234;50.856;15.716;2022-10-31T14:58:17;7.18;;;3.45;;